Time;durP1;ratioP1;P1;durP2;ratioP2;P2;SDS_P1;SDS_P2;PMS_P1;PMS_P2;Temp;Humidity;BMP_temperature;BMP_pressure;BME280_temperature;BME280_humidity;BME280_pressure;Samples;Min_cycle;Max_cycle;Signal;HPM_P1;HPM_P2
2022/11/14 06:39:01;;;;;;;;;;;;;;;;;;;;;
2022/11/14 06:48:04;;;;;;;15.57;9.73;;;6.30;99.90;;;;;;6211908;23;20547;-87
2022/11/14 06:54:31;;;;;;;15.13;9.27;;;6.30;99.90;;;;;;6206767;23;20190;-86
2022/11/14 07:23:56;;;;;;;15.95;11.85;;;6.50;1.00;;;;;;6194512;23;20166;-86
2022/11/14 07:26:58;;;;;;;16.40;11.65;;;6.50;1.00;;;;;;6215692;23;20156;-86
2022/11/14 09:06:29;;;;;;;;;;;;;;;;;;;;;
2022/11/14 09:09:54;;;;;;;;;;;;;;;;;;;;;
2022/11/14 09:23:29;;;;;;;;;;;;;;;;;;;;;
2022/11/14 16:38:37;;;;;;;50.93;31.17;;;9.70;99.90;;;;;;6286717;22;20839;-83
2022/11/14 16:41:12;;;;;;;28.13;19.80;;;9.80;99.90;;;;;;6316780;22;20385;-84
2022/11/14 16:43:37;;;;;;;30.13;21.63;;;9.80;99.90;;;;;;6258915;22;20369;-83
2022/11/14 16:46:07;;;;;;;97.20;42.33;;;9.80;99.90;;;;;;6253930;22;20423;-85
2022/11/14 16:48:32;;;;;;;289.30;121.47;;;9.80;99.90;;;;;;6259347;22;20224;-86
2022/11/14 16:51:04;;;;;;;369.90;215.27;;;9.80;99.90;;;;;;6291758;22;20371;-84
2022/11/14 16:53:32;;;;;;;60.57;35.97;;;9.80;1.00;;;;;;6290348;22;20614;-84
2022/11/14 16:55:57;;;;;;;39.93;28.13;;;9.80;99.90;;;;;;6287834;22;20375;-84
2022/11/14 16:58:23;;;;;;;223.43;152.67;;;9.80;1.00;;;;;;6260148;22;20382;-85
2022/11/14 17:00:48;;;;;;;58.67;38.97;;;9.80;1.00;;;;;;6285506;22;20535;-83
2022/11/14 17:03:14;;;;;;;52.53;28.33;;;9.70;1.00;;;;;;6257355;22;20163;-85
2022/11/14 17:05:44;;;;;;;66.33;45.70;;;9.70;37.80;;;;;;6290061;22;20168;-85
2022/11/14 17:08:10;;;;;;;175.57;94.30;;;9.70;99.90;;;;;;6287953;22;20372;-85
2022/11/14 17:10:43;;;;;;;32.00;20.97;;;9.70;99.90;;;;;;6289037;22;20457;-83
2022/11/14 17:13:10;;;;;;;278.83;163.93;;;9.60;99.90;;;;;;6290365;22;20477;-85
2022/11/14 17:15:35;;;;;;;294.70;132.40;;;9.60;99.90;;;;;;6288515;22;20399;-84
2022/11/14 17:18:01;;;;;;;38.30;22.20;;;9.60;1.00;;;;;;6259833;22;20405;-85
2022/11/14 17:20:27;;;;;;;361.63;237.93;;;9.60;1.00;;;;;;6285386;22;20417;-85
2022/11/14 17:22:53;;;;;;;25.83;19.00;;;9.50;1.00;;;;;;6280201;22;20144;-84
2022/11/14 17:25:19;;;;;;;21.70;15.10;;;9.60;1.00;;;;;;6280848;22;20203;-85
2022/11/14 17:27:47;;;;;;;24.23;16.27;;;9.60;1.00;;;;;;6254700;22;20387;-85
2022/11/14 17:30:14;;;;;;;22.03;16.20;;;9.50;1.00;;;;;;6285526;22;20231;-85
2022/11/14 17:32:40;;;;;;;21.23;17.73;;;9.60;1.00;;;;;;6283699;22;20788;-85
2022/11/14 17:35:06;;;;;;;24.67;16.00;;;9.50;1.00;;;;;;6283339;22;20395;-86
2022/11/14 17:37:32;;;;;;;23.35;16.38;;;9.40;1.00;;;;;;6285443;22;20163;-85
2022/11/14 17:39:58;;;;;;;24.73;17.87;;;9.40;1.00;;;;;;6285948;22;20164;-85
2022/11/14 17:42:23;;;;;;;30.23;22.33;;;9.30;1.00;;;;;;6289855;22;20377;-85
2022/11/14 17:44:49;;;;;;;31.03;23.40;;;9.20;1.00;;;;;;6288202;22;20188;-86
2022/11/14 17:47:14;;;;;;;33.60;22.50;;;9.10;28.00;;;;;;6284561;22;20484;-86
2022/11/14 17:49:40;;;;;;;34.20;21.30;;;9.10;1.00;;;;;;6282824;22;20148;-85
2022/11/14 17:52:05;;;;;;;27.50;19.80;;;9.10;1.00;;;;;;6281997;22;20243;-85
2022/11/14 17:54:31;;;;;;;24.37;16.73;;;9.10;1.00;;;;;;6282280;22;20202;-85
2022/11/14 17:56:58;;;;;;;25.88;17.60;;;9.10;1.00;;;;;;6284478;22;20163;-85
2022/11/14 17:59:24;;;;;;;23.23;15.75;;;9.10;1.00;;;;;;6285024;22;20191;-85
2022/11/14 18:01:49;;;;;;;35.47;27.77;;;9.10;1.00;;;;;;6288443;22;20171;-86
2022/11/14 18:04:15;;;;;;;23.30;17.23;;;9.10;1.00;;;;;;6293388;22;20190;-85
2022/11/14 18:06:43;;;;;;;23.50;17.57;;;9.00;1.00;;;;;;6262881;22;20161;-82
2022/11/14 18:09:11;;;;;;;46.33;41.90;;;9.00;1.00;;;;;;6260056;22;20164;-84
2022/11/14 18:11:37;;;;;;;20.33;15.50;;;9.00;99.90;;;;;;6278754;22;20216;-84
2022/11/14 18:14:16;;;;;;;22.37;19.57;;;9.00;99.90;;;;;;6254635;22;20180;-84
2022/11/14 18:16:49;;;;;;;32.93;25.90;;;9.00;99.90;;;;;;6254119;22;20382;-85
2022/11/14 18:19:35;;;;;;;18.75;13.43;;;9.00;99.90;;;;;;6251004;22;20445;-85
2022/11/14 18:22:01;;;;;;;19.83;15.83;;;8.90;99.90;;;;;;6279503;22;20137;-84
2022/11/14 18:24:29;;;;;;;22.50;16.10;;;8.90;99.90;;;;;;6282036;22;20399;-84
2022/11/14 18:26:58;;;;;;;29.17;17.73;;;8.80;99.90;;;;;;6252749;22;20152;-84
2022/11/14 18:29:44;;;;;;;22.40;17.43;;;8.70;99.90;;;;;;6254439;22;20426;-85
2022/11/14 18:32:09;;;;;;;21.52;14.68;;;8.60;99.90;;;;;;6256600;22;20383;-85
2022/11/14 18:34:47;;;;;;;18.07;13.63;;;8.60;99.90;;;;;;6253097;22;20180;-84
2022/11/14 18:37:16;;;;;;;23.98;15.30;;;8.60;99.90;;;;;;6256736;22;20160;-84
2022/11/14 18:39:42;;;;;;;22.45;18.55;;;8.40;1.00;;;;;;6283645;22;20180;-84
2022/11/14 18:42:07;;;;;;;23.10;14.27;;;8.40;1.00;;;;;;6255825;22;20166;-84
2022/11/14 18:44:33;;;;;;;27.00;20.47;;;8.30;54.80;;;;;;6256040;22;20176;-84
2022/11/14 18:46:59;;;;;;;20.50;14.50;;;8.30;99.90;;;;;;6254166;22;20179;-83
2022/11/14 18:49:27;;;;;;;18.60;14.37;;;8.30;99.90;;;;;;6282609;22;20152;-83
2022/11/14 18:52:04;;;;;;;;;;;;;;;;;;;;;
2022/11/14 18:58:08;;;;;;;23.27;15.90;;;8.30;1.00;;;;;;6269699;22;20206;-84
2022/11/14 19:01:30;;;;;;;;;;;;;;;;;;;;;
2022/11/14 19:04:21;;;;;;;19.98;14.82;;;8.20;99.90;;;;;;6281022;22;20267;-83
2022/11/14 19:06:46;;;;;;;22.70;15.88;;;8.20;99.90;;;;;;6282944;22;20513;-83
2022/11/14 19:09:23;;;;;;;24.97;16.33;;;8.10;99.90;;;;;;6281580;22;20155;-84
2022/11/14 19:15:06;;;;;;;21.17;16.63;;;8.10;99.90;;;;;;6281870;22;20657;-85
2022/11/14 19:21:58;;;;;;;20.60;15.43;;;8.00;99.90;;;;;;6121131;23;20164;-83
2022/11/14 19:25:11;;;;;;;;;;;;;;;;;;;;;
2022/11/14 19:28:19;;;;;;;;;;;;;;;;;;;;;
2022/11/14 19:31:14;;;;;;;21.48;15.30;;;8.00;99.90;;;;;;6282370;22;20191;-85
2022/11/14 19:34:44;;;;;;;;;;;;;;;;;;;;;
2022/11/14 19:37:38;;;;;;;19.15;16.40;;;7.90;1.00;;;;;;6210838;22;20206;-85
2022/11/14 19:40:06;;;;;;;18.85;13.20;;;7.90;99.90;;;;;;6225702;23;20212;-83
2022/11/14 19:42:59;;;;;;;16.15;12.07;;;7.90;99.90;;;;;;6248965;23;20605;-84
2022/11/14 19:48:17;;;;;;;17.83;12.07;;;7.90;99.90;;;;;;6252278;23;20164;-85
2022/11/14 19:51:06;;;;;;;14.77;11.18;;;7.90;1.00;;;;;;6226440;23;20626;-85
2022/11/14 19:53:56;;;;;;;17.95;11.45;;;8.00;99.90;;;;;;6249824;22;20157;-84
2022/11/14 19:56:29;;;;;;;14.38;10.27;;;8.00;99.90;;;;;;6249760;23;20488;-85
2022/11/14 19:58:56;;;;;;;27.38;24.45;;;8.00;99.90;;;;;;6224734;23;20184;-84
2022/11/14 20:01:30;;;;;;;12.27;9.70;;;8.00;99.90;;;;;;6224888;23;20157;-84
2022/11/14 20:03:59;;;;;;;19.45;14.60;;;8.00;99.90;;;;;;6252561;22;20184;-85
2022/11/14 20:06:34;;;;;;;13.13;9.52;;;8.00;99.90;;;;;;6253060;23;20602;-85
2022/11/14 20:12:41;;;;;;;14.65;10.77;;;8.10;99.90;;;;;;6245054;23;20164;-84
2022/11/14 20:15:32;;;;;;;;;;;;;;;;;;;;;
2022/11/14 20:18:27;;;;;;;14.75;10.40;;;8.10;99.90;;;;;;6251887;23;20156;-85
2022/11/14 20:21:25;;;;;;;;;;;;;;;;;;;;;
2022/11/14 20:23:59;;;;;;;22.00;11.00;;;8.20;99.90;;;;;;6255026;22;20193;-84
2022/11/14 20:26:53;;;;;;;;;;;;;;;;;;;;;
2022/11/14 20:29:29;;;;;;;16.65;12.02;;;8.20;99.90;;;;;;6252417;23;20180;-84
2022/11/14 20:31:55;;;;;;;17.30;12.07;;;8.20;99.90;;;;;;6252113;23;20155;-85
2022/11/14 20:34:50;;;;;;;12.20;9.80;;;8.30;99.90;;;;;;6224455;23;20226;-85
2022/11/14 20:37:16;;;;;;;24.42;21.17;;;8.30;99.90;;;;;;6224417;23;20231;-85
2022/11/14 20:39:51;;;;;;;15.53;13.83;;;8.30;99.90;;;;;;6284417;22;20684;-85
2022/11/14 20:42:38;;;;;;;16.08;11.23;;;8.40;99.90;;;;;;6284855;22;20131;-84
2022/11/14 20:45:09;;;;;;;19.60;15.93;;;8.40;1.00;;;;;;6285524;22;20487;-86
2022/11/14 20:47:41;;;;;;;15.23;10.15;;;8.50;99.90;;;;;;6257468;22;20390;-85
2022/11/14 20:50:30;;;;;;;17.65;11.13;;;8.60;99.90;;;;;;6255007;22;20160;-85
2022/11/14 20:52:56;;;;;;;15.10;11.10;;;8.60;99.90;;;;;;6250586;22;20153;-85
2022/11/14 20:55:22;;;;;;;16.47;11.80;;;8.60;99.90;;;;;;6278884;22;20179;-85
2022/11/14 20:57:50;;;;;;;15.77;11.10;;;8.70;1.00;;;;;;6254363;22;20157;-84
2022/11/14 21:00:55;;;;;;;21.58;16.35;;;8.70;1.00;;;;;;6281065;22;20172;-85
2022/11/14 21:04:06;;;;;;;14.13;11.30;;;8.80;1.00;;;;;;6275913;22;20148;-83
2022/11/14 21:06:22;;;;;;;15.75;12.52;;;8.80;1.00;;;;;;6276952;22;20536;-85
2022/11/14 21:08:50;;;;;;;17.00;12.77;;;8.80;1.00;;;;;;6255107;22;20156;-85
2022/11/14 21:11:22;;;;;;;18.65;13.27;;;8.90;1.00;;;;;;6278297;22;20155;-85
2022/11/14 21:13:57;;;;;;;17.63;11.73;;;8.90;1.00;;;;;;6255056;22;20223;-85
2022/11/14 21:16:34;;;;;;;18.60;11.68;;;9.00;1.00;;;;;;6256079;22;20607;-85
2022/11/14 21:19:01;;;;;;;17.43;11.60;;;9.00;1.00;;;;;;6283714;22;20172;-85
2022/11/14 21:21:29;;;;;;;16.30;11.10;;;9.00;1.00;;;;;;6279790;22;20443;-85
2022/11/14 21:23:55;;;;;;;14.97;11.13;;;9.00;1.00;;;;;;6281908;22;20395;-85
2022/11/14 21:26:22;;;;;;;19.40;13.63;;;9.00;1.00;;;;;;6253590;22;20445;-84
2022/11/14 21:28:52;;;;;;;17.27;14.13;;;9.00;1.00;;;;;;6284001;22;20371;-84
2022/11/14 21:31:30;;;;;;;15.97;12.83;;;9.00;1.00;;;;;;6258597;22;20153;-85
2022/11/14 21:33:57;;;;;;;23.50;12.00;;;9.00;1.00;;;;;;6284972;22;20379;-85
2022/11/14 21:36:38;;;;;;;19.20;13.40;;;9.00;1.00;;;;;;6259255;22;20172;-84
2022/11/14 21:39:21;;;;;;;16.58;13.05;;;9.10;1.00;;;;;;6268481;22;20433;-85
2022/11/14 21:41:49;;;;;;;18.63;14.83;;;9.10;1.00;;;;;;6260041;22;20155;-83
2022/11/14 21:44:16;;;;;;;15.97;12.40;;;9.10;1.00;;;;;;6278404;22;20417;-84
2022/11/14 21:46:45;;;;;;;18.40;13.07;;;9.20;1.00;;;;;;6248231;22;20391;-84
2022/11/14 21:49:10;;;;;;;18.90;13.90;;;9.20;1.00;;;;;;6246674;22;20449;-83
2022/11/14 21:55:22;;;;;;;17.77;12.27;;;9.20;1.00;;;;;;6273337;22;20255;-86
2022/11/14 21:59:17;;;;;;;20.40;14.57;;;9.20;1.00;;;;;;6099566;23;20163;-84
2022/11/14 22:04:39;;;;;;;15.45;12.95;;;9.20;1.00;;;;;;6276781;22;20406;-83
2022/11/14 22:07:16;;;;;;;18.25;13.35;;;9.20;1.00;;;;;;6252599;22;20667;-85
2022/11/14 22:09:57;;;;;;;18.23;13.30;;;9.20;1.00;;;;;;6253049;22;20590;-85
2022/11/14 22:12:50;;;;;;;18.20;13.73;;;9.20;1.00;;;;;;6252846;22;20432;-86
2022/11/14 22:15:34;;;;;;;16.90;13.37;;;9.30;1.00;;;;;;6279077;22;20415;-84
2022/11/14 22:21:51;;;;;;;;;;;;;;;;;;;;;
2022/11/14 22:25:00;;;;;;;19.67;14.53;;;9.30;1.00;;;;;;6280774;22;20485;-84
2022/11/14 22:27:32;;;;;;;18.77;14.07;;;9.30;1.00;;;;;;6251197;22;20390;-84
2022/11/14 22:29:59;;;;;;;23.30;18.67;;;9.30;1.00;;;;;;6253456;22;20567;-85
2022/11/14 22:32:34;;;;;;;22.83;16.83;;;9.30;1.00;;;;;;6252306;22;20428;-84
2022/11/14 22:35:28;;;;;;;18.23;14.20;;;9.30;1.00;;;;;;6250954;22;20409;-85
2022/11/14 22:38:05;;;;;;;20.57;15.90;;;9.40;1.00;;;;;;6280427;22;20394;-83
2022/11/14 22:40:43;;;;;;;;;;;;;;;;;;;;;
2022/11/14 22:43:16;;;;;;;21.60;14.60;;;9.40;1.00;;;;;;6284140;22;20449;-85
2022/11/14 22:45:47;;;;;;;19.20;14.50;;;9.40;16.80;;;;;;6283772;22;20405;-85
2022/11/14 22:48:25;;;;;;;20.30;14.80;;;9.50;28.10;;;;;;6286603;22;20375;-85
2022/11/14 22:51:14;;;;;;;21.33;14.67;;;9.50;27.40;;;;;;6257253;22;20375;-85
2022/11/14 22:54:12;;;;;;;22.60;17.80;;;9.60;71.50;;;;;;6256888;22;20708;-85
2022/11/14 22:56:51;;;;;;;17.30;13.97;;;9.60;94.80;;;;;;6232295;22;20868;-85
2022/11/14 23:07:03;;;;;;;;;;;;;;;;;;;;;
2022/11/14 23:10:41;;;;;;;20.20;14.63;;;9.80;99.90;;;;;;6276061;22;20474;-84
2022/11/14 23:22:08;;;;;;;18.53;13.20;;;10.00;99.90;;;;;;6211155;23;20397;-84
2022/11/14 23:24:51;;;;;;;19.13;12.10;;;10.10;99.90;;;;;;6281027;22;20428;-85
2022/11/14 23:27:20;;;;;;;19.50;12.77;;;10.20;99.90;;;;;;6282933;22;20397;-84
2022/11/14 23:29:45;;;;;;;18.00;13.83;;;10.30;99.90;;;;;;6283473;22;20375;-84
2022/11/14 23:32:11;;;;;;;16.73;12.87;;;10.30;99.90;;;;;;6255872;22;20470;-85
2022/11/14 23:34:37;;;;;;;16.77;13.17;;;10.30;99.90;;;;;;6283765;22;20165;-85
2022/11/14 23:37:02;;;;;;;19.30;13.90;;;10.40;99.90;;;;;;6254545;22;20159;-84
2022/11/14 23:39:28;;;;;;;17.70;11.97;;;10.40;99.90;;;;;;6255969;22;20499;-83
2022/11/14 23:41:53;;;;;;;15.17;12.33;;;10.40;99.90;;;;;;6280128;22;20491;-84
2022/11/14 23:44:19;;;;;;;17.27;13.87;;;10.50;99.90;;;;;;6282021;22;20225;-84
2022/11/14 23:46:44;;;;;;;15.40;13.00;;;10.50;99.90;;;;;;6281697;22;20152;-83
2022/11/14 23:49:09;;;;;;;17.67;11.97;;;10.50;99.90;;;;;;6281180;22;20231;-84
2022/11/14 23:51:35;;;;;;;17.77;12.37;;;10.60;99.90;;;;;;6253705;22;20160;-82
2022/11/14 23:54:01;;;;;;;16.77;12.50;;;10.60;99.90;;;;;;6253542;22;20183;-84
2022/11/14 23:56:26;;;;;;;19.77;12.80;;;10.60;99.90;;;;;;6281169;22;20155;-84
2022/11/14 23:58:51;;;;;;;19.70;12.27;;;10.60;99.90;;;;;;6278140;22;20152;-83
